createdAt,value
2023-03-29T00:00:11.082Z,67193.03
2023-03-29T00:02:39.068Z,67186.66
2023-03-29T00:05:11.863Z,67212.50
2023-03-29T00:07:38.945Z,67217.78
2023-03-29T00:10:06.487Z,67199.00
2023-03-29T00:12:36.786Z,67196.63
2023-03-29T00:15:08.539Z,67202.16
2023-03-29T00:17:35.716Z,67194.38
2023-03-29T00:20:05.462Z,67193.03
2023-03-29T00:22:33.259Z,67197.69
2023-03-29T00:25:04.122Z,67191.16
2023-03-29T00:27:31.658Z,67197.31
2023-03-29T00:30:01.516Z,67193.03
2023-03-29T00:32:29.074Z,67196.78
2023-03-29T00:35:01.055Z,67199.56
2023-03-29T00:37:30.004Z,67205.41
2023-03-29T00:39:57.756Z,67208.22
2023-03-29T00:42:26.079Z,67210.25
2023-03-29T00:45:25.223Z,67213.06
2023-03-29T00:48:00.138Z,67226.56
2023-03-29T00:50:41.689Z,67211.00
2023-03-29T00:53:38.543Z,67215.66
2023-03-29T00:56:19.886Z,67224.31
2023-03-29T00:58:55.051Z,67209.34
2023-03-29T01:02:02.291Z,67199.56
2023-03-29T01:04:43.931Z,67196.19
2023-03-29T01:07:23.304Z,67187.97
2023-03-29T01:10:01.839Z,67177.88
2023-03-29T01:12:36.039Z,67174.28
2023-03-29T01:15:09.163Z,67166.44
2023-03-29T01:17:37.333Z,67162.50
2023-03-29T01:20:10.834Z,67156.88
2023-03-29T01:23:00.665Z,67151.25
2023-03-29T01:26:01.709Z,67141.91
2023-03-29T01:28:38.718Z,67137.41
2023-03-29T01:31:11.934Z,67089.31
2023-03-29T01:33:44.924Z,67135.53
2023-03-29T01:36:27.508Z,67137.78
2023-03-29T01:38:57.854Z,67138.69
2023-03-29T01:41:39.696Z,67132.16
2023-03-29T01:44:15.340Z,67134.97
2023-03-29T01:46:47.382Z,67138.88
2023-03-29T01:49:20.871Z,67137.78
2023-03-29T01:51:58.098Z,67136.66
2023-03-29T01:54:48.569Z,67135.72
2023-03-29T01:57:19.921Z,67131.44
2023-03-29T01:59:49.220Z,67131.81
2023-03-29T02:02:18.400Z,67138.88
2023-03-29T02:04:52.323Z,67138.19
2023-03-29T02:07:25.288Z,67135.38
2023-03-29T02:09:57.044Z,67139.47
2023-03-29T02:12:24.209Z,67138.88
2023-03-29T02:14:51.328Z,67134.25
2023-03-29T02:17:18.410Z,67136.66
2023-03-29T02:19:54.384Z,67137.22
2023-03-29T02:22:37.573Z,67130.88
2023-03-29T02:25:08.481Z,67134.03
2023-03-29T02:27:38.093Z,67134.97
2023-03-29T02:30:08.311Z,67130.13
2023-03-29T02:32:52.453Z,67126.75
2023-03-29T02:35:53.110Z,67125.97
2023-03-29T02:38:21.849Z,67078.66
2023-03-29T02:40:49.167Z,67123.38
2023-03-29T02:43:17.978Z,67121.69
2023-03-29T02:45:46.424Z,67122.06
2023-03-29T02:48:18.271Z,67122.25
2023-03-29T02:50:50.975Z,67124.06
2023-03-29T02:53:24.195Z,67122.25
2023-03-29T02:55:53.497Z,67120.56
2023-03-29T02:58:26.473Z,67123.75
2023-03-29T03:00:53.862Z,67131.25
2023-03-29T03:03:23.873Z,67133.84
2023-03-29T03:05:54.489Z,67127.31
2023-03-29T03:08:21.755Z,67122.81
2023-03-29T03:10:49.197Z,67134.97
2023-03-29T03:13:16.482Z,67129.13
2023-03-29T03:15:49.154Z,67118.53
2023-03-29T03:18:17.056Z,67076.41
2023-03-29T03:20:46.601Z,67129.34
2023-03-29T03:23:13.699Z,67128.22
2023-03-29T03:25:41.111Z,67131.25
2023-03-29T03:28:08.320Z,67079.22
2023-03-29T03:30:41.622Z,67133.84
2023-03-29T03:33:19.251Z,67088.41
2023-03-29T03:36:18.314Z,67096.63
2023-03-29T03:38:49.623Z,67137.78
2023-03-29T03:41:16.916Z,67138.88
2023-03-29T03:43:48.679Z,67147.53
2023-03-29T03:46:17.216Z,67150.34
2023-03-29T03:48:50.419Z,67152.59
2023-03-29T03:51:22.307Z,67144.38
2023-03-29T03:53:50.951Z,67143.94
2023-03-29T03:56:38.388Z,67145.28
2023-03-29T03:59:16.511Z,67156.31
2023-03-29T04:01:56.322Z,67153.50
2023-03-29T04:04:24.953Z,67148.09
2023-03-29T04:07:04.961Z,67150.69
2023-03-29T04:09:59.027Z,67150.91
2023-03-29T04:12:36.498Z,67146.78
2023-03-29T04:15:04.341Z,67143.59
2023-03-29T04:17:32.413Z,67144.72
2023-03-29T04:20:10.271Z,67145.63
2023-03-29T04:22:37.905Z,67145.28
2023-03-29T04:25:06.716Z,67108.41
2023-03-29T04:27:46.186Z,67154.28
2023-03-29T04:30:41.758Z,67155.75
2023-03-29T04:33:19.984Z,67147.16
2023-03-29T04:35:53.673Z,67154.06
2023-03-29T04:38:23.373Z,67155.75
2023-03-29T04:40:52.174Z,67108.41
2023-03-29T04:43:26.221Z,67152.59
2023-03-29T04:46:03.453Z,67160.25
2023-03-29T04:48:49.185Z,67161.00
2023-03-29T04:51:17.866Z,67161.59
2023-03-29T04:53:45.943Z,67162.69
2023-03-29T04:56:13.373Z,67162.69
2023-03-29T04:58:59.249Z,67175.41
2023-03-29T05:01:27.440Z,67173.72
2023-03-29T05:03:58.213Z,67176.53
2023-03-29T05:06:34.065Z,67177.88
2023-03-29T05:09:01.664Z,67184.94
2023-03-29T05:11:41.861Z,67190.03
2023-03-29T05:14:09.449Z,67189.66
2023-03-29T05:16:38.116Z,67191.00
2023-03-29T05:19:06.490Z,67151.06
2023-03-29T05:21:41.368Z,67200.00
2023-03-29T05:24:13.173Z,67166.78
2023-03-29T05:26:56.586Z,67214.38
2023-03-29T05:29:25.302Z,67223.53
2023-03-29T05:32:03.385Z,67222.84
2023-03-29T05:34:35.012Z,67231.81
2023-03-29T05:37:03.278Z,67237.44
2023-03-29T05:39:40.049Z,67244.56
2023-03-29T05:42:07.336Z,67245.31
2023-03-29T05:44:47.356Z,67246.63
2023-03-29T05:47:20.686Z,67252.06
2023-03-29T05:49:51.469Z,67207.81
2023-03-29T05:52:26.435Z,67254.31
2023-03-29T05:54:55.380Z,67259.72
2023-03-29T05:57:33.110Z,67265.34
2023-03-29T06:00:20.482Z,67270.97
2023-03-29T06:02:56.336Z,67273.97
2023-03-29T06:05:27.700Z,67271.38
2023-03-29T06:07:59.162Z,67284.47
2023-03-29T06:10:50.379Z,67290.31
2023-03-29T06:13:38.969Z,67296.69
2023-03-29T06:16:10.640Z,67298.72
2023-03-29T06:18:41.411Z,67302.09
2023-03-29T06:21:09.585Z,67304.16
2023-03-29T06:23:52.317Z,67304.72
2023-03-29T06:26:21.107Z,67305.50
2023-03-29T06:28:52.215Z,67314.28
2023-03-29T06:31:21.307Z,67322.69
2023-03-29T06:33:51.676Z,67320.69
2023-03-29T06:36:34.254Z,67321.59
2023-03-29T06:39:07.526Z,67321.22
2023-03-29T06:41:58.303Z,67324.25
2023-03-29T06:44:45.667Z,67325.38
2023-03-29T06:47:24.395Z,67325.94
2023-03-29T06:49:51.656Z,67327.06
2023-03-29T06:52:48.916Z,67325.38
2023-03-29T06:55:16.657Z,67291.00
2023-03-29T06:57:49.484Z,67335.28
2023-03-29T07:00:39.931Z,67333.25
2023-03-29T07:03:20.154Z,67348.00
2023-03-29T07:05:55.077Z,67351.81
2023-03-29T07:08:31.819Z,67362.88
2023-03-29T07:11:08.683Z,67373.91
2023-03-29T07:13:49.432Z,67384.81
2023-03-29T07:16:24.704Z,67397.34
2023-03-29T07:19:01.429Z,67399.78
2023-03-29T07:21:54.872Z,67399.66
2023-03-29T07:24:26.582Z,67394.94
2023-03-29T07:27:04.061Z,67392.31
2023-03-29T07:29:34.915Z,67397.41
2023-03-29T07:32:03.146Z,67406.19
2023-03-29T07:34:51.333Z,67410.50
2023-03-29T07:37:37.473Z,67406.75
2023-03-29T07:40:12.822Z,67404.72
2023-03-29T07:43:01.432Z,67406.75
2023-03-29T07:45:32.587Z,67415.56
2023-03-29T07:48:05.787Z,67410.50
2023-03-29T07:50:48.875Z,67412.75
2023-03-29T07:53:19.146Z,67419.28
2023-03-29T07:55:50.194Z,67431.31
2023-03-29T07:58:40.223Z,67439.06
2023-03-29T08:01:20.212Z,67447.09
2023-03-29T08:04:02.548Z,67447.66
2023-03-29T08:07:00.408Z,67448.41
2023-03-29T08:09:43.606Z,67446.72
2023-03-29T08:12:11.414Z,67455.88
2023-03-29T08:14:51.078Z,67457.06
2023-03-29T08:17:28.930Z,67482.00
2023-03-29T08:19:59.418Z,67494.41
2023-03-29T08:22:27.977Z,67492.13
2023-03-29T08:25:15.847Z,67486.53
2023-03-29T08:27:53.517Z,67482.78
2023-03-29T08:30:33.405Z,67485.38
2023-03-29T08:33:02.319Z,67490.47
2023-03-29T08:35:29.999Z,67498.53
2023-03-29T08:38:22.767Z,67503.78
2023-03-29T08:40:54.837Z,67506.03
2023-03-29T08:43:31.993Z,67509.25
2023-03-29T08:46:35.351Z,67511.88
2023-03-29T08:49:26.454Z,67509.63
2023-03-29T08:51:59.853Z,67494.81
2023-03-29T08:54:36.808Z,67501.94
2023-03-29T08:57:24.213Z,67509.97
2023-03-29T09:00:01.304Z,67523.53
2023-03-29T09:02:34.159Z,67542.50
2023-03-29T09:05:23.390Z,67562.78
2023-03-29T09:08:07.877Z,67572.19
2023-03-29T09:10:50.597Z,67595.13
2023-03-29T09:13:39.046Z,67618.03
2023-03-29T09:16:25.525Z,67646.59
2023-03-29T09:19:30.748Z,67659.19
2023-03-29T09:22:10.525Z,67673.09
2023-03-29T09:25:03.403Z,67695.88
2023-03-29T09:27:44.408Z,67711.28
2023-03-29T09:30:35.636Z,67731.97
2023-03-29T09:33:31.704Z,67753.81
2023-03-29T09:36:20.024Z,67773.72
2023-03-29T09:38:51.260Z,67792.38
2023-03-29T09:41:45.163Z,67821.56
2023-03-29T09:44:33.281Z,67835.09
2023-03-29T09:47:25.966Z,67819.88
2023-03-29T09:50:01.852Z,67771.28
2023-03-29T09:52:29.239Z,67755.31
2023-03-29T09:55:06.680Z,67752.06
2023-03-29T09:57:52.560Z,67766.97
2023-03-29T10:00:20.721Z,67765.66
2023-03-29T10:03:03.545Z,67754.38
2023-03-29T10:05:47.892Z,67764.13
2023-03-29T10:08:27.044Z,67763.56
2023-03-29T10:10:58.568Z,67790.69
2023-03-29T10:13:31.737Z,67803.44
2023-03-29T10:16:07.492Z,67828.88
2023-03-29T10:18:42.011Z,67817.78
2023-03-29T10:21:12.873Z,67805.72
2023-03-29T10:23:40.022Z,67803.66
2023-03-29T10:26:15.708Z,67824.16
2023-03-29T10:28:42.997Z,67824.16
2023-03-29T10:31:18.928Z,67820.03
2023-03-29T10:33:52.544Z,67838.09
2023-03-29T10:36:19.926Z,67858.28
2023-03-29T10:38:47.671Z,67862.63
2023-03-29T10:41:23.114Z,67899.91
2023-03-29T10:43:51.195Z,67918.16
2023-03-29T10:46:27.429Z,67922.66
2023-03-29T10:49:06.053Z,67905.94
2023-03-29T10:51:34.541Z,67887.47
2023-03-29T10:54:02.318Z,67870.88
2023-03-29T10:57:04.429Z,67852.38
2023-03-29T10:59:52.418Z,67825.69
2023-03-29T11:02:35.996Z,67814.75
2023-03-29T11:05:48.301Z,67845.44
2023-03-29T11:08:43.653Z,67877.09
2023-03-29T11:11:24.491Z,67918.91
2023-03-29T11:14:05.730Z,67894.25
2023-03-29T11:17:02.327Z,67885.56
2023-03-29T11:19:53.412Z,67929.44
2023-03-29T11:23:07.272Z,67959.59
2023-03-29T11:25:37.273Z,67943.59
2023-03-29T11:28:07.691Z,67961.88
2023-03-29T11:30:44.709Z,68007.09
2023-03-29T11:33:47.737Z,68027.47
2023-03-29T11:36:46.673Z,68032.75
2023-03-29T11:39:54.302Z,68011.63
2023-03-29T11:42:29.426Z,68006.34
2023-03-29T11:45:00.054Z,68000.31
2023-03-29T11:47:31.917Z,67986.75
2023-03-29T11:50:22.102Z,67992.97
2023-03-29T11:52:56.598Z,67988.44
2023-03-29T11:55:37.474Z,68007.31
2023-03-29T11:58:16.818Z,68004.28
2023-03-29T12:01:10.943Z,68002.00
2023-03-29T12:04:01.695Z,68003.13
2023-03-29T12:06:50.824Z,68034.25
2023-03-29T12:09:40.320Z,68023.69
2023-03-29T12:12:21.401Z,68024.63
2023-03-29T12:15:20.067Z,68056.88
2023-03-29T12:18:10.085Z,68076.88
2023-03-29T12:20:40.424Z,68091.41
2023-03-29T12:23:14.692Z,68104.59
2023-03-29T12:25:47.576Z,68132.16
2023-03-29T12:28:33.333Z,68104.78
2023-03-29T12:31:09.558Z,68109.13
2023-03-29T12:33:57.833Z,68106.09
2023-03-29T12:37:14.402Z,68108.16
2023-03-29T12:40:10.147Z,68108.00
2023-03-29T12:43:15.902Z,68089.69
2023-03-29T12:46:09.169Z,68118.75
2023-03-29T12:48:41.902Z,68128.97
2023-03-29T12:51:42.760Z,68146.69
2023-03-29T12:54:21.690Z,68123.09
2023-03-29T12:56:52.096Z,68132.94
2023-03-29T13:00:08.724Z,68098.94
2023-03-29T13:02:37.837Z,68091.78
2023-03-29T13:05:31.655Z,68086.66
2023-03-29T13:08:12.904Z,68092.50
2023-03-29T13:10:44.240Z,68067.63
2023-03-29T13:13:18.944Z,68071.00
2023-03-29T13:15:51.861Z,68065.16
2023-03-29T13:18:39.000Z,68051.97
2023-03-29T13:21:37.962Z,68056.88
2023-03-29T13:24:23.677Z,68072.16
2023-03-29T13:26:59.660Z,68084.78
2023-03-29T13:30:34.220Z,68089.31
2023-03-29T13:33:13.353Z,68106.28
2023-03-29T13:36:33.111Z,68101.56
2023-03-29T13:39:08.085Z,68113.84
2023-03-29T13:41:38.254Z,68095.91
2023-03-29T13:44:25.718Z,68078.00
2023-03-29T13:47:17.648Z,68095.72
2023-03-29T13:50:01.184Z,68104.38
2023-03-29T13:52:55.408Z,68117.63
2023-03-29T13:56:01.946Z,68112.72
2023-03-29T13:58:51.335Z,68100.25
2023-03-29T14:01:45.505Z,68095.16
2023-03-29T14:04:27.183Z,68087.63
2023-03-29T14:06:56.297Z,68089.88
2023-03-29T14:09:46.000Z,68105.91
2023-03-29T14:12:22.573Z,68088.38
2023-03-29T14:14:59.355Z,68077.81
2023-03-29T14:17:35.026Z,68075.75
2023-03-29T14:20:09.701Z,68082.53
2023-03-29T14:22:50.866Z,68081.97
2023-03-29T14:25:30.053Z,68090.44
2023-03-29T14:28:00.281Z,68086.66
2023-03-29T14:30:36.764Z,68085.53
2023-03-29T14:33:11.902Z,68078.94
2023-03-29T14:35:44.125Z,68075.75
2023-03-29T14:38:17.634Z,68084.03
2023-03-29T14:40:47.968Z,68099.88
2023-03-29T14:43:24.134Z,68108.56
2023-03-29T14:45:57.113Z,68109.13
2023-03-29T14:48:35.946Z,68118.97
2023-03-29T14:51:13.994Z,68140.47
2023-03-29T14:53:50.397Z,68157.25
2023-03-29T14:56:26.641Z,68154.81
2023-03-29T14:58:55.332Z,68164.06
2023-03-29T15:01:46.153Z,68172.16
2023-03-29T15:04:13.936Z,68172.34
2023-03-29T15:06:52.927Z,68178.38
2023-03-29T15:09:28.318Z,68187.06
2023-03-29T15:12:00.172Z,68177.63
2023-03-29T15:14:38.236Z,68164.63
2023-03-29T15:17:51.938Z,68167.25
2023-03-29T15:20:27.108Z,68134.41
2023-03-29T15:23:40.793Z,68120.25
2023-03-29T15:26:21.963Z,68099.50
2023-03-29T15:28:55.842Z,68096.47
2023-03-29T15:31:32.992Z,68101.19
2023-03-29T15:34:27.555Z,68093.66
2023-03-29T15:36:57.842Z,68088.75
2023-03-29T15:39:27.704Z,68083.66
2023-03-29T15:41:56.929Z,68093.28
2023-03-29T15:44:29.032Z,68099.09
2023-03-29T15:46:58.174Z,68099.09
2023-03-29T15:49:26.320Z,68091.41
2023-03-29T15:51:54.369Z,68091.41
2023-03-29T15:54:21.934Z,68098.16
2023-03-29T15:56:53.486Z,68097.78
2023-03-29T15:59:21.653Z,68089.50
2023-03-29T16:01:49.232Z,68088.56
2023-03-29T16:04:21.923Z,68094.78
2023-03-29T16:06:53.451Z,68104.78
2023-03-29T16:09:22.376Z,68101.00
2023-03-29T16:11:50.126Z,68101.38
2023-03-29T16:14:30.537Z,68097.41
2023-03-29T16:17:06.276Z,68098.38
2023-03-29T16:19:36.213Z,68098.16
2023-03-29T16:22:07.374Z,68105.34
2023-03-29T16:24:36.108Z,68099.31
2023-03-29T16:27:03.812Z,68115.72
2023-03-29T16:29:31.682Z,68109.31
2023-03-29T16:31:59.217Z,68096.69
2023-03-29T16:34:26.836Z,68097.41
2023-03-29T16:36:54.159Z,68088.75
2023-03-29T16:39:21.529Z,68088.75
2023-03-29T16:41:50.123Z,68088.75
2023-03-29T16:44:23.764Z,68090.81
2023-03-29T16:46:54.200Z,68090.81
2023-03-29T16:49:21.747Z,68091.03
2023-03-29T16:51:48.925Z,68093.44
2023-03-29T16:54:19.733Z,68085.91
2023-03-29T16:56:47.169Z,68086.69
2023-03-29T16:59:15.370Z,68097.22
2023-03-29T17:01:42.801Z,68093.09
2023-03-29T17:04:12.533Z,68093.09
2023-03-29T17:06:39.886Z,68072.34
2023-03-29T17:09:07.381Z,68062.91
2023-03-29T17:11:34.849Z,68057.44
2023-03-29T17:14:02.374Z,68047.25
2023-03-29T17:16:29.608Z,68039.91
2023-03-29T17:19:00.496Z,68038.56
2023-03-29T17:21:30.822Z,68024.47
2023-03-29T17:23:57.925Z,68030.66
2023-03-29T17:26:25.094Z,68026.34
2023-03-29T17:28:52.191Z,68030.28
2023-03-29T17:31:19.566Z,68027.66
2023-03-29T17:33:47.556Z,68014.63
2023-03-29T17:36:14.999Z,68009.94
2023-03-29T17:38:42.964Z,67997.47
2023-03-29T17:41:11.117Z,67991.84
2023-03-29T17:43:38.414Z,67986.56
2023-03-29T17:46:06.213Z,67983.91
2023-03-29T17:48:34.456Z,67986.38
2023-03-29T17:51:01.447Z,67983.53
2023-03-29T17:53:28.528Z,67987.69
2023-03-29T17:55:55.713Z,67978.47
2023-03-29T17:58:22.840Z,67979.19
2023-03-29T18:00:50.074Z,67979.41
2023-03-29T18:03:17.264Z,67981.44
2023-03-29T18:05:44.405Z,67983.34
2023-03-29T18:08:15.058Z,67983.53
2023-03-29T18:10:43.163Z,67975.84
2023-03-29T18:13:13.916Z,67974.31
2023-03-29T18:15:42.215Z,67968.84
2023-03-29T18:18:09.469Z,67968.84
2023-03-29T18:20:36.997Z,67963.75
2023-03-29T18:23:04.255Z,67964.69
2023-03-29T18:25:31.323Z,67965.63
2023-03-29T18:27:58.474Z,67959.81
2023-03-29T18:30:25.886Z,67965.25
2023-03-29T18:32:53.601Z,67960.94
2023-03-29T18:35:20.957Z,67960.94
2023-03-29T18:37:48.194Z,67965.06
2023-03-29T18:40:16.704Z,67956.00
2023-03-29T18:42:43.876Z,67949.81
2023-03-29T18:45:11.709Z,67943.78
2023-03-29T18:47:41.613Z,67938.88
2023-03-29T18:50:09.504Z,67941.72
2023-03-29T18:52:36.763Z,67944.34
2023-03-29T18:55:05.269Z,67941.72
2023-03-29T18:57:32.628Z,67941.53
2023-03-29T19:00:00.120Z,67937.19
2023-03-29T19:02:27.305Z,67943.03
2023-03-29T19:04:57.441Z,67941.34
2023-03-29T19:07:24.509Z,67940.41
2023-03-29T19:09:51.638Z,67942.84
2023-03-29T19:12:18.777Z,67943.22
2023-03-29T19:14:46.691Z,67946.25
2023-03-29T19:17:13.725Z,67956.00
2023-03-29T19:19:40.863Z,67946.25
2023-03-29T19:22:08.411Z,67957.34
2023-03-29T19:24:35.806Z,67962.06
2023-03-29T19:27:03.114Z,67976.78
2023-03-29T19:29:30.503Z,67979.97
2023-03-29T19:31:57.763Z,67975.25
2023-03-29T19:34:24.941Z,67972.03
2023-03-29T19:36:53.941Z,67963.75
2023-03-29T19:39:21.952Z,67955.09
2023-03-29T19:41:49.595Z,67944.34
2023-03-29T19:44:16.683Z,67937.19
2023-03-29T19:46:44.818Z,67928.72
2023-03-29T19:49:13.705Z,67925.69
2023-03-29T19:51:41.989Z,67926.25
2023-03-29T19:54:11.385Z,67927.00
2023-03-29T19:56:38.714Z,67916.66
2023-03-29T19:59:06.404Z,67914.41
2023-03-29T20:01:33.883Z,67911.56
2023-03-29T20:04:02.638Z,67905.56
2023-03-29T20:06:29.996Z,67911.00
2023-03-29T20:08:58.644Z,67911.19
2023-03-29T20:11:26.062Z,67917.97
2023-03-29T20:13:53.340Z,67924.75
2023-03-29T20:16:24.227Z,67928.50
2023-03-29T20:18:54.021Z,67936.44
2023-03-29T20:21:21.241Z,67940.97
2023-03-29T20:23:48.338Z,67944.16
2023-03-29T20:26:15.519Z,67940.97
2023-03-29T20:28:42.741Z,67935.69
2023-03-29T20:31:13.131Z,67931.91
2023-03-29T20:33:41.733Z,67929.09
2023-03-29T20:36:09.094Z,67928.88
2023-03-29T20:38:36.738Z,67928.16
2023-03-29T20:41:05.448Z,67925.69
2023-03-29T20:43:37.521Z,67914.78
2023-03-29T20:46:14.300Z,67925.13
2023-03-29T20:48:53.436Z,67920.81
2023-03-29T20:51:22.558Z,67920.22
2023-03-29T20:53:50.725Z,67920.03
2023-03-29T20:56:19.058Z,67914.94
2023-03-29T20:58:46.935Z,67906.13
2023-03-29T21:01:14.415Z,67898.19
2023-03-29T21:03:43.459Z,67899.13
2023-03-29T21:06:14.000Z,67890.84
2023-03-29T21:08:42.649Z,67891.03
2023-03-29T21:11:13.072Z,67892.38
2023-03-29T21:13:41.571Z,67898.00
2023-03-29T21:16:13.004Z,67888.78
2023-03-29T21:18:40.519Z,67892.38
2023-03-29T21:21:09.749Z,67894.03
2023-03-29T21:23:38.979Z,67892.72
2023-03-29T21:26:07.839Z,67889.34
2023-03-29T21:28:35.477Z,67884.81
2023-03-29T21:31:06.765Z,67885.00
2023-03-29T21:33:35.047Z,67889.34
2023-03-29T21:36:02.585Z,67884.47
2023-03-29T21:38:29.771Z,67890.66
2023-03-29T21:40:58.161Z,67893.84
2023-03-29T21:43:25.450Z,67893.28
2023-03-29T21:45:52.592Z,67891.22
2023-03-29T21:48:19.817Z,67894.03
2023-03-29T21:50:53.317Z,67890.47
2023-03-29T21:53:20.425Z,67888.03
2023-03-29T21:55:48.983Z,67884.25
2023-03-29T21:58:16.300Z,67874.84
2023-03-29T22:00:43.997Z,67876.53
2023-03-29T22:03:11.479Z,67880.28
2023-03-29T22:05:39.143Z,67871.81
2023-03-29T22:08:10.340Z,67864.09
2023-03-29T22:10:41.232Z,67862.63
2023-03-29T22:13:09.278Z,67863.19
2023-03-29T22:15:36.425Z,67859.78
2023-03-29T22:18:03.932Z,67863.56
2023-03-29T22:20:35.801Z,67865.97
2023-03-29T22:23:03.431Z,67858.09
2023-03-29T22:25:30.517Z,67862.22
2023-03-29T22:27:57.663Z,67859.59
2023-03-29T22:30:24.759Z,67858.81
2023-03-29T22:32:52.121Z,67860.72
2023-03-29T22:35:19.413Z,67852.44
2023-03-29T22:37:46.535Z,67853.38
2023-03-29T22:40:13.941Z,67851.69
2023-03-29T22:42:41.277Z,67854.31
2023-03-29T22:45:09.101Z,67858.28
2023-03-29T22:47:36.281Z,67856.75
2023-03-29T22:50:13.416Z,67863.34
2023-03-29T22:52:40.611Z,67866.00
2023-03-29T22:55:08.451Z,67864.66
2023-03-29T22:57:35.547Z,67860.72
2023-03-29T23:00:09.136Z,67859.03
2023-03-29T23:02:37.214Z,67861.28
2023-03-29T23:05:04.688Z,67862.41
2023-03-29T23:07:36.264Z,67857.31
2023-03-29T23:10:06.538Z,67859.03
2023-03-29T23:12:36.175Z,67856.75
2023-03-29T23:15:08.037Z,67854.50
2023-03-29T23:17:35.704Z,67852.44
2023-03-29T23:20:06.084Z,67861.09
2023-03-29T23:22:35.859Z,67859.94
2023-03-29T23:25:05.776Z,67857.31
2023-03-29T23:27:33.181Z,67857.69
2023-03-29T23:30:03.716Z,67854.31
2023-03-29T23:32:30.861Z,67855.25
2023-03-29T23:34:58.150Z,67847.13
2023-03-29T23:37:28.715Z,67851.13
2023-03-29T23:39:56.022Z,67856.19
2023-03-29T23:42:23.212Z,67856.75
2023-03-29T23:44:50.721Z,67857.31
2023-03-29T23:47:17.839Z,67865.59
2023-03-29T23:49:45.359Z,67863.75
2023-03-29T23:52:12.544Z,67862.97
2023-03-29T23:54:39.636Z,67865.81
2023-03-29T23:57:06.836Z,67858.47
2023-03-29T23:59:37.788Z,67853.38
